sensor_id;sensor_type;location;lat;lon;timestamp;temperature;humidity
2893;DHT22;1456;51.840;12.184;2024-01-10T00:01:19;-9.50;99.90
2893;DHT22;1456;51.840;12.184;2024-01-10T00:03:46;-9.50;99.90
2893;DHT22;1456;51.840;12.184;2024-01-10T00:06:12;-9.60;99.90
2893;DHT22;1456;51.840;12.184;2024-01-10T00:08:37;-9.60;99.90
2893;DHT22;1456;51.840;12.184;2024-01-10T00:11:03;-9.70;99.90
2893;DHT22;1456;51.840;12.184;2024-01-10T00:13:31;-9.70;99.90
2893;DHT22;1456;51.840;12.184;2024-01-10T00:15:57;-9.70;99.90
2893;DHT22;1456;51.840;12.184;2024-01-10T00:18:24;-9.80;99.90
2893;DHT22;1456;51.840;12.184;2024-01-10T00:20:51;-9.80;99.90
2893;DHT22;1456;51.840;12.184;2024-01-10T00:23:21;-9.80;99.90
2893;DHT22;1456;51.840;12.184;2024-01-10T00:25:47;-9.80;99.90
2893;DHT22;1456;51.840;12.184;2024-01-10T00:28:12;-9.90;99.90
2893;DHT22;1456;51.840;12.184;2024-01-10T00:30:39;-9.90;99.90
2893;DHT22;1456;51.840;12.184;2024-01-10T00:33:05;-10.00;99.90
2893;DHT22;1456;51.840;12.184;2024-01-10T00:35:31;-10.00;99.90
2893;DHT22;1456;51.840;12.184;2024-01-10T00:37:58;-10.00;99.90
2893;DHT22;1456;51.840;12.184;2024-01-10T00:40:23;-10.00;99.90
2893;DHT22;1456;51.840;12.184;2024-01-10T00:42:49;-10.10;99.90
2893;DHT22;1456;51.840;12.184;2024-01-10T00:45:16;-10.10;99.90
2893;DHT22;1456;51.840;12.184;2024-01-10T00:47:42;-10.10;99.90
2893;DHT22;1456;51.840;12.184;2024-01-10T00:50:08;-10.10;99.90
2893;DHT22;1456;51.840;12.184;2024-01-10T00:52:34;-10.20;99.90
2893;DHT22;1456;51.840;12.184;2024-01-10T00:55:00;-10.20;99.90
2893;DHT22;1456;51.840;12.184;2024-01-10T00:57:25;-10.30;99.90
2893;DHT22;1456;51.840;12.184;2024-01-10T00:59:51;-10.30;99.90
2893;DHT22;1456;51.840;12.184;2024-01-10T01:02:17;-10.30;99.90
2893;DHT22;1456;51.840;12.184;2024-01-10T01:04:43;-10.30;99.90
2893;DHT22;1456;51.840;12.184;2024-01-10T01:07:08;-10.40;99.90
2893;DHT22;1456;51.840;12.184;2024-01-10T01:09:34;-10.40;99.90
2893;DHT22;1456;51.840;12.184;2024-01-10T01:12:00;-10.40;99.90
2893;DHT22;1456;51.840;12.184;2024-01-10T01:14:26;-10.40;99.90
2893;DHT22;1456;51.840;12.184;2024-01-10T01:16:52;-10.50;99.90
2893;DHT22;1456;51.840;12.184;2024-01-10T01:19:18;-10.50;99.90
2893;DHT22;1456;51.840;12.184;2024-01-10T01:21:44;-10.50;99.90
2893;DHT22;1456;51.840;12.184;2024-01-10T01:24:09;-10.50;99.90
2893;DHT22;1456;51.840;12.184;2024-01-10T01:26:35;-10.50;99.90
2893;DHT22;1456;51.840;12.184;2024-01-10T01:29:01;-10.60;99.90
2893;DHT22;1456;51.840;12.184;2024-01-10T01:31:26;-10.60;99.90
2893;DHT22;1456;51.840;12.184;2024-01-10T01:33:52;-10.60;99.90
2893;DHT22;1456;51.840;12.184;2024-01-10T01:36:18;-10.60;99.90
2893;DHT22;1456;51.840;12.184;2024-01-10T01:38:44;-10.70;99.90
2893;DHT22;1456;51.840;12.184;2024-01-10T01:41:09;-10.70;99.90
2893;DHT22;1456;51.840;12.184;2024-01-10T01:43:35;-10.70;99.90
2893;DHT22;1456;51.840;12.184;2024-01-10T01:46:01;-10.70;99.90
2893;DHT22;1456;51.840;12.184;2024-01-10T01:48:28;-10.70;99.90
2893;DHT22;1456;51.840;12.184;2024-01-10T01:51:00;-10.70;99.90
2893;DHT22;1456;51.840;12.184;2024-01-10T01:53:27;-10.70;99.90
2893;DHT22;1456;51.840;12.184;2024-01-10T01:55:55;-10.80;99.90
2893;DHT22;1456;51.840;12.184;2024-01-10T01:58:22;-10.80;99.90
2893;DHT22;1456;51.840;12.184;2024-01-10T02:00:49;-10.80;99.90
2893;DHT22;1456;51.840;12.184;2024-01-10T02:03:15;-10.80;99.90
2893;DHT22;1456;51.840;12.184;2024-01-10T02:05:41;-10.90;99.90
2893;DHT22;1456;51.840;12.184;2024-01-10T02:08:08;-10.90;99.90
2893;DHT22;1456;51.840;12.184;2024-01-10T02:10:34;-10.90;99.90
2893;DHT22;1456;51.840;12.184;2024-01-10T02:13:00;-10.90;99.90
2893;DHT22;1456;51.840;12.184;2024-01-10T02:15:26;-10.90;99.90
2893;DHT22;1456;51.840;12.184;2024-01-10T02:17:51;-11.00;99.90
2893;DHT22;1456;51.840;12.184;2024-01-10T02:20:17;-11.00;99.90
2893;DHT22;1456;51.840;12.184;2024-01-10T02:22:43;-11.00;99.90
2893;DHT22;1456;51.840;12.184;2024-01-10T02:25:10;-11.00;99.90
2893;DHT22;1456;51.840;12.184;2024-01-10T02:27:36;-10.90;99.90
2893;DHT22;1456;51.840;12.184;2024-01-10T02:30:03;-11.00;99.90
2893;DHT22;1456;51.840;12.184;2024-01-10T02:32:29;-11.00;99.90
2893;DHT22;1456;51.840;12.184;2024-01-10T02:34:55;-11.00;99.90
2893;DHT22;1456;51.840;12.184;2024-01-10T02:37:20;-11.00;99.90
2893;DHT22;1456;51.840;12.184;2024-01-10T02:39:46;-11.00;99.90
2893;DHT22;1456;51.840;12.184;2024-01-10T02:42:12;-11.00;99.90
2893;DHT22;1456;51.840;12.184;2024-01-10T02:44:37;-11.20;99.90
2893;DHT22;1456;51.840;12.184;2024-01-10T02:47:03;-11.20;99.90
2893;DHT22;1456;51.840;12.184;2024-01-10T02:49:29;-11.20;99.90
2893;DHT22;1456;51.840;12.184;2024-01-10T02:51:54;-11.20;99.90
2893;DHT22;1456;51.840;12.184;2024-01-10T02:54:20;-11.20;99.90
2893;DHT22;1456;51.840;12.184;2024-01-10T02:56:46;-11.20;99.90
2893;DHT22;1456;51.840;12.184;2024-01-10T02:59:11;-11.20;99.90
2893;DHT22;1456;51.840;12.184;2024-01-10T03:01:37;-11.20;99.90
2893;DHT22;1456;51.840;12.184;2024-01-10T03:04:03;-11.20;99.90
2893;DHT22;1456;51.840;12.184;2024-01-10T03:06:28;-11.20;99.90
2893;DHT22;1456;51.840;12.184;2024-01-10T03:08:54;-11.30;99.90
2893;DHT22;1456;51.840;12.184;2024-01-10T03:11:20;-11.30;99.90
2893;DHT22;1456;51.840;12.184;2024-01-10T03:13:46;-11.30;99.90
2893;DHT22;1456;51.840;12.184;2024-01-10T03:16:13;-11.30;99.90
2893;DHT22;1456;51.840;12.184;2024-01-10T03:18:39;-11.30;99.90
2893;DHT22;1456;51.840;12.184;2024-01-10T03:21:05;-11.30;99.90
2893;DHT22;1456;51.840;12.184;2024-01-10T03:23:32;-11.30;99.90
2893;DHT22;1456;51.840;12.184;2024-01-10T03:25:58;-11.30;99.90
2893;DHT22;1456;51.840;12.184;2024-01-10T03:28:24;-11.30;99.90
2893;DHT22;1456;51.840;12.184;2024-01-10T03:30:49;-11.30;99.90
2893;DHT22;1456;51.840;12.184;2024-01-10T03:33:15;-11.40;99.90
2893;DHT22;1456;51.840;12.184;2024-01-10T03:35:41;-11.40;99.90
2893;DHT22;1456;51.840;12.184;2024-01-10T03:38:07;-11.40;99.90
2893;DHT22;1456;51.840;12.184;2024-01-10T03:40:34;-11.40;99.90
2893;DHT22;1456;51.840;12.184;2024-01-10T03:42:59;-11.40;99.90
2893;DHT22;1456;51.840;12.184;2024-01-10T03:45:25;-11.40;99.90
2893;DHT22;1456;51.840;12.184;2024-01-10T03:47:51;-11.40;99.90
2893;DHT22;1456;51.840;12.184;2024-01-10T03:50:20;-11.40;99.90
2893;DHT22;1456;51.840;12.184;2024-01-10T03:52:46;-11.50;99.90
2893;DHT22;1456;51.840;12.184;2024-01-10T03:55:12;-11.50;99.90
2893;DHT22;1456;51.840;12.184;2024-01-10T03:57:39;-11.50;99.90
2893;DHT22;1456;51.840;12.184;2024-01-10T04:00:05;-11.50;99.90
2893;DHT22;1456;51.840;12.184;2024-01-10T04:02:37;-11.50;99.90
2893;DHT22;1456;51.840;12.184;2024-01-10T04:05:09;-11.50;99.90
2893;DHT22;1456;51.840;12.184;2024-01-10T04:07:36;-11.50;99.90
2893;DHT22;1456;51.840;12.184;2024-01-10T04:10:02;-11.50;99.90
2893;DHT22;1456;51.840;12.184;2024-01-10T04:12:28;-11.50;99.90
2893;DHT22;1456;51.840;12.184;2024-01-10T04:14:54;-11.50;99.90
2893;DHT22;1456;51.840;12.184;2024-01-10T04:17:19;-11.50;99.90
2893;DHT22;1456;51.840;12.184;2024-01-10T04:19:45;-11.50;99.90
2893;DHT22;1456;51.840;12.184;2024-01-10T04:22:11;-11.50;99.90
2893;DHT22;1456;51.840;12.184;2024-01-10T04:24:36;-11.50;99.90
2893;DHT22;1456;51.840;12.184;2024-01-10T04:27:02;-11.50;99.90
2893;DHT22;1456;51.840;12.184;2024-01-10T04:29:28;-11.50;99.90
2893;DHT22;1456;51.840;12.184;2024-01-10T04:31:54;-11.50;99.90
2893;DHT22;1456;51.840;12.184;2024-01-10T04:34:19;-11.60;99.90
2893;DHT22;1456;51.840;12.184;2024-01-10T04:36:45;-11.60;99.90
2893;DHT22;1456;51.840;12.184;2024-01-10T04:39:11;-11.50;99.90
2893;DHT22;1456;51.840;12.184;2024-01-10T04:41:36;-11.50;99.90
2893;DHT22;1456;51.840;12.184;2024-01-10T04:44:02;-11.50;99.90
2893;DHT22;1456;51.840;12.184;2024-01-10T04:46:28;-11.60;99.90
2893;DHT22;1456;51.840;12.184;2024-01-10T04:48:54;-11.60;99.90
2893;DHT22;1456;51.840;12.184;2024-01-10T04:51:19;-11.60;99.90
2893;DHT22;1456;51.840;12.184;2024-01-10T04:53:45;-11.60;99.90
2893;DHT22;1456;51.840;12.184;2024-01-10T04:56:10;-11.60;99.90
2893;DHT22;1456;51.840;12.184;2024-01-10T04:58:36;-11.60;99.90
2893;DHT22;1456;51.840;12.184;2024-01-10T05:01:02;-11.60;99.90
2893;DHT22;1456;51.840;12.184;2024-01-10T05:03:28;-11.60;99.90
2893;DHT22;1456;51.840;12.184;2024-01-10T05:05:54;-11.60;99.90
2893;DHT22;1456;51.840;12.184;2024-01-10T05:08:19;-11.60;99.90
2893;DHT22;1456;51.840;12.184;2024-01-10T05:10:48;-11.60;99.90
2893;DHT22;1456;51.840;12.184;2024-01-10T05:13:13;-11.60;99.90
2893;DHT22;1456;51.840;12.184;2024-01-10T05:15:39;-11.60;99.90
2893;DHT22;1456;51.840;12.184;2024-01-10T05:18:05;-11.70;99.90
2893;DHT22;1456;51.840;12.184;2024-01-10T05:20:30;-11.70;99.90
2893;DHT22;1456;51.840;12.184;2024-01-10T05:22:57;-11.70;99.90
2893;DHT22;1456;51.840;12.184;2024-01-10T05:25:24;-11.70;99.90
2893;DHT22;1456;51.840;12.184;2024-01-10T05:27:50;-11.70;99.90
2893;DHT22;1456;51.840;12.184;2024-01-10T05:30:16;-11.70;99.90
2893;DHT22;1456;51.840;12.184;2024-01-10T05:32:44;-11.70;99.90
2893;DHT22;1456;51.840;12.184;2024-01-10T05:35:09;-11.70;99.90
2893;DHT22;1456;51.840;12.184;2024-01-10T05:37:36;-11.80;99.90
2893;DHT22;1456;51.840;12.184;2024-01-10T05:40:02;-11.80;99.90
2893;DHT22;1456;51.840;12.184;2024-01-10T05:42:30;-11.80;99.90
2893;DHT22;1456;51.840;12.184;2024-01-10T05:44:55;-11.80;99.90
2893;DHT22;1456;51.840;12.184;2024-01-10T05:47:21;-11.90;99.90
2893;DHT22;1456;51.840;12.184;2024-01-10T05:49:46;-11.90;99.90
2893;DHT22;1456;51.840;12.184;2024-01-10T05:52:12;-11.90;99.90
2893;DHT22;1456;51.840;12.184;2024-01-10T05:54:38;-11.90;99.90
2893;DHT22;1456;51.840;12.184;2024-01-10T05:57:04;-11.90;99.90
2893;DHT22;1456;51.840;12.184;2024-01-10T05:59:30;-11.90;99.90
2893;DHT22;1456;51.840;12.184;2024-01-10T06:01:56;-11.80;99.90
2893;DHT22;1456;51.840;12.184;2024-01-10T06:04:24;-11.80;99.90
2893;DHT22;1456;51.840;12.184;2024-01-10T06:06:49;-11.90;99.90
2893;DHT22;1456;51.840;12.184;2024-01-10T06:09:15;-11.90;99.90
2893;DHT22;1456;51.840;12.184;2024-01-10T06:11:47;-11.90;99.90
2893;DHT22;1456;51.840;12.184;2024-01-10T06:14:12;-11.90;99.90
2893;DHT22;1456;51.840;12.184;2024-01-10T06:16:38;-11.90;99.90
2893;DHT22;1456;51.840;12.184;2024-01-10T06:19:04;-11.90;99.90
2893;DHT22;1456;51.840;12.184;2024-01-10T06:21:29;-11.90;99.90
2893;DHT22;1456;51.840;12.184;2024-01-10T06:23:55;-11.90;99.90
2893;DHT22;1456;51.840;12.184;2024-01-10T06:26:21;-11.90;99.90
2893;DHT22;1456;51.840;12.184;2024-01-10T06:28:47;-11.90;99.90
2893;DHT22;1456;51.840;12.184;2024-01-10T06:31:13;-11.80;99.90
2893;DHT22;1456;51.840;12.184;2024-01-10T06:33:39;-11.80;99.90
2893;DHT22;1456;51.840;12.184;2024-01-10T06:36:04;-11.80;99.90
2893;DHT22;1456;51.840;12.184;2024-01-10T06:38:30;-11.80;99.90
2893;DHT22;1456;51.840;12.184;2024-01-10T06:40:56;-11.80;99.90
2893;DHT22;1456;51.840;12.184;2024-01-10T06:43:22;-11.80;99.90
2893;DHT22;1456;51.840;12.184;2024-01-10T06:45:47;-11.80;99.90
2893;DHT22;1456;51.840;12.184;2024-01-10T06:48:13;-11.90;99.90
2893;DHT22;1456;51.840;12.184;2024-01-10T06:50:40;-11.90;99.90
2893;DHT22;1456;51.840;12.184;2024-01-10T06:53:05;-11.90;99.90
2893;DHT22;1456;51.840;12.184;2024-01-10T06:55:31;-11.80;99.90
2893;DHT22;1456;51.840;12.184;2024-01-10T06:57:57;-11.80;99.90
2893;DHT22;1456;51.840;12.184;2024-01-10T07:00:23;-11.70;99.90
2893;DHT22;1456;51.840;12.184;2024-01-10T07:02:49;-11.70;99.90
2893;DHT22;1456;51.840;12.184;2024-01-10T07:05:15;-11.70;99.90
2893;DHT22;1456;51.840;12.184;2024-01-10T07:07:41;-11.70;99.90
2893;DHT22;1456;51.840;12.184;2024-01-10T07:10:07;-11.70;99.90
2893;DHT22;1456;51.840;12.184;2024-01-10T07:12:33;-11.70;99.90
2893;DHT22;1456;51.840;12.184;2024-01-10T07:15:00;-11.70;99.90
2893;DHT22;1456;51.840;12.184;2024-01-10T07:17:25;-11.70;99.90
2893;DHT22;1456;51.840;12.184;2024-01-10T07:19:52;-11.70;99.90
2893;DHT22;1456;51.840;12.184;2024-01-10T07:22:17;-11.70;99.90
2893;DHT22;1456;51.840;12.184;2024-01-10T07:24:43;-11.60;99.90
2893;DHT22;1456;51.840;12.184;2024-01-10T07:27:09;-11.60;99.90
2893;DHT22;1456;51.840;12.184;2024-01-10T07:29:35;-11.70;99.90
2893;DHT22;1456;51.840;12.184;2024-01-10T07:32:01;-11.60;99.90
2893;DHT22;1456;51.840;12.184;2024-01-10T07:34:26;-11.60;99.90
2893;DHT22;1456;51.840;12.184;2024-01-10T07:36:52;-11.60;99.90
2893;DHT22;1456;51.840;12.184;2024-01-10T07:39:19;-11.50;99.90
2893;DHT22;1456;51.840;12.184;2024-01-10T07:41:45;-11.50;99.90
2893;DHT22;1456;51.840;12.184;2024-01-10T07:44:11;-11.40;99.90
2893;DHT22;1456;51.840;12.184;2024-01-10T07:46:37;-11.30;99.90
2893;DHT22;1456;51.840;12.184;2024-01-10T07:49:04;-11.20;99.90
2893;DHT22;1456;51.840;12.184;2024-01-10T07:51:30;-11.20;99.90
2893;DHT22;1456;51.840;12.184;2024-01-10T07:53:56;-11.10;99.90
2893;DHT22;1456;51.840;12.184;2024-01-10T07:56:22;-11.10;99.90
2893;DHT22;1456;51.840;12.184;2024-01-10T07:58:47;-11.10;99.90
2893;DHT22;1456;51.840;12.184;2024-01-10T08:01:14;-11.00;99.90
2893;DHT22;1456;51.840;12.184;2024-01-10T08:03:40;-10.90;99.90
2893;DHT22;1456;51.840;12.184;2024-01-10T08:06:06;-10.90;99.90
2893;DHT22;1456;51.840;12.184;2024-01-10T08:08:32;-10.80;99.90
2893;DHT22;1456;51.840;12.184;2024-01-10T08:10:58;-10.70;99.90
2893;DHT22;1456;51.840;12.184;2024-01-10T08:13:24;-10.70;99.90
2893;DHT22;1456;51.840;12.184;2024-01-10T08:15:49;-10.60;99.90
2893;DHT22;1456;51.840;12.184;2024-01-10T08:18:16;-10.50;99.90
2893;DHT22;1456;51.840;12.184;2024-01-10T08:20:42;-10.30;99.90
2893;DHT22;1456;51.840;12.184;2024-01-10T08:23:08;-10.20;99.90
2893;DHT22;1456;51.840;12.184;2024-01-10T08:25:33;-10.00;99.90
2893;DHT22;1456;51.840;12.184;2024-01-10T08:27:59;-9.90;99.90
2893;DHT22;1456;51.840;12.184;2024-01-10T08:30:25;-9.70;99.90
2893;DHT22;1456;51.840;12.184;2024-01-10T08:32:50;-9.60;99.90
2893;DHT22;1456;51.840;12.184;2024-01-10T08:35:16;-9.40;99.90
2893;DHT22;1456;51.840;12.184;2024-01-10T08:37:42;-9.20;99.90
2893;DHT22;1456;51.840;12.184;2024-01-10T08:40:12;-9.10;99.90
2893;DHT22;1456;51.840;12.184;2024-01-10T08:42:40;-8.90;99.90
2893;DHT22;1456;51.840;12.184;2024-01-10T08:45:08;-8.80;99.90
2893;DHT22;1456;51.840;12.184;2024-01-10T08:47:35;-8.70;99.90
2893;DHT22;1456;51.840;12.184;2024-01-10T08:50:03;-8.60;99.90
2893;DHT22;1456;51.840;12.184;2024-01-10T08:52:31;-8.40;99.90
2893;DHT22;1456;51.840;12.184;2024-01-10T08:54:56;-8.30;99.90
2893;DHT22;1456;51.840;12.184;2024-01-10T08:57:22;-8.20;99.90
2893;DHT22;1456;51.840;12.184;2024-01-10T08:59:48;-8.10;99.90
2893;DHT22;1456;51.840;12.184;2024-01-10T09:02:14;-8.00;99.90
2893;DHT22;1456;51.840;12.184;2024-01-10T09:04:40;-7.80;99.90
2893;DHT22;1456;51.840;12.184;2024-01-10T09:07:07;-7.70;99.90
2893;DHT22;1456;51.840;12.184;2024-01-10T09:09:32;-7.60;99.90
2893;DHT22;1456;51.840;12.184;2024-01-10T09:11:58;-7.50;99.90
2893;DHT22;1456;51.840;12.184;2024-01-10T09:14:23;-7.50;99.90
2893;DHT22;1456;51.840;12.184;2024-01-10T09:17:07;-7.50;99.90
2893;DHT22;1456;51.840;12.184;2024-01-10T09:19:33;-7.50;99.90
2893;DHT22;1456;51.840;12.184;2024-01-10T09:25:39;-7.30;99.90
2893;DHT22;1456;51.840;12.184;2024-01-10T09:28:05;-7.10;99.90
2893;DHT22;1456;51.840;12.184;2024-01-10T09:30:30;-7.10;99.90
2893;DHT22;1456;51.840;12.184;2024-01-10T09:32:56;-7.10;99.90
2893;DHT22;1456;51.840;12.184;2024-01-10T09:35:40;-7.00;99.90
2893;DHT22;1456;51.840;12.184;2024-01-10T09:44:54;-6.90;99.90
2893;DHT22;1456;51.840;12.184;2024-01-10T09:47:20;-7.00;99.90
2893;DHT22;1456;51.840;12.184;2024-01-10T09:50:03;-6.90;99.90
2893;DHT22;1456;51.840;12.184;2024-01-10T09:52:35;-6.80;99.90
2893;DHT22;1456;51.840;12.184;2024-01-10T09:55:04;-6.70;99.90
2893;DHT22;1456;51.840;12.184;2024-01-10T09:57:30;-6.70;99.90
2893;DHT22;1456;51.840;12.184;2024-01-10T09:59:56;-6.60;99.90
2893;DHT22;1456;51.840;12.184;2024-01-10T10:02:23;-6.50;99.90
2893;DHT22;1456;51.840;12.184;2024-01-10T10:05:12;-6.50;99.90
2893;DHT22;1456;51.840;12.184;2024-01-10T10:07:45;-6.40;99.90
2893;DHT22;1456;51.840;12.184;2024-01-10T10:10:11;-6.30;99.90
2893;DHT22;1456;51.840;12.184;2024-01-10T10:12:48;-6.20;99.90
2893;DHT22;1456;51.840;12.184;2024-01-10T10:15:21;-6.10;99.90
2893;DHT22;1456;51.840;12.184;2024-01-10T10:17:48;-6.00;99.90
2893;DHT22;1456;51.840;12.184;2024-01-10T10:20:23;-5.90;99.90
2893;DHT22;1456;51.840;12.184;2024-01-10T10:23:00;-5.80;99.90
2893;DHT22;1456;51.840;12.184;2024-01-10T10:28:50;-5.70;99.90
2893;DHT22;1456;51.840;12.184;2024-01-10T10:31:18;-5.70;99.90
2893;DHT22;1456;51.840;12.184;2024-01-10T10:33:44;-5.60;99.90
2893;DHT22;1456;51.840;12.184;2024-01-10T10:36:10;-5.50;99.90
2893;DHT22;1456;51.840;12.184;2024-01-10T10:38:36;-5.40;99.90
2893;DHT22;1456;51.840;12.184;2024-01-10T10:41:05;-5.20;99.90
2893;DHT22;1456;51.840;12.184;2024-01-10T10:43:40;-5.10;99.90
2893;DHT22;1456;51.840;12.184;2024-01-10T10:49:29;-4.70;99.90
2893;DHT22;1456;51.840;12.184;2024-01-10T10:55:21;-4.40;99.90
2893;DHT22;1456;51.840;12.184;2024-01-10T10:57:52;-4.20;99.90
2893;DHT22;1456;51.840;12.184;2024-01-10T11:00:21;-4.10;99.90
2893;DHT22;1456;51.840;12.184;2024-01-10T11:03:18;-3.80;99.90
2893;DHT22;1456;51.840;12.184;2024-01-10T11:31:50;-1.60;99.90
2893;DHT22;1456;51.840;12.184;2024-01-10T11:34:24;-1.60;99.90
2893;DHT22;1456;51.840;12.184;2024-01-10T11:37:10;-1.20;99.90
2893;DHT22;1456;51.840;12.184;2024-01-10T11:39:36;-1.10;99.80
2893;DHT22;1456;51.840;12.184;2024-01-10T11:42:03;-1.10;99.10
2893;DHT22;1456;51.840;12.184;2024-01-10T11:44:29;-1.10;98.60
2893;DHT22;1456;51.840;12.184;2024-01-10T11:50:52;-0.90;98.00
2893;DHT22;1456;51.840;12.184;2024-01-10T11:53:41;-0.50;97.80
2893;DHT22;1456;51.840;12.184;2024-01-10T11:56:12;-0.30;98.30
2893;DHT22;1456;51.840;12.184;2024-01-10T11:59:00;0.10;98.10
2893;DHT22;1456;51.840;12.184;2024-01-10T12:01:27;0.50;96.20
2893;DHT22;1456;51.840;12.184;2024-01-10T12:03:53;0.80;96.50
2893;DHT22;1456;51.840;12.184;2024-01-10T12:06:21;1.30;98.30
2893;DHT22;1456;51.840;12.184;2024-01-10T12:08:47;1.90;96.90
2893;DHT22;1456;51.840;12.184;2024-01-10T12:11:13;2.10;92.40
2893;DHT22;1456;51.840;12.184;2024-01-10T12:13:39;2.30;92.00
2893;DHT22;1456;51.840;12.184;2024-01-10T12:16:05;2.50;92.50
2893;DHT22;1456;51.840;12.184;2024-01-10T12:18:31;3.10;92.70
2893;DHT22;1456;51.840;12.184;2024-01-10T12:20:56;3.70;91.90
2893;DHT22;1456;51.840;12.184;2024-01-10T12:23:22;4.30;91.40
2893;DHT22;1456;51.840;12.184;2024-01-10T12:25:50;5.10;88.50
2893;DHT22;1456;51.840;12.184;2024-01-10T12:28:16;5.50;83.80
2893;DHT22;1456;51.840;12.184;2024-01-10T12:30:42;6.10;81.70
2893;DHT22;1456;51.840;12.184;2024-01-10T12:33:11;6.60;80.70
2893;DHT22;1456;51.840;12.184;2024-01-10T12:35:37;6.70;73.50
2893;DHT22;1456;51.840;12.184;2024-01-10T12:38:07;6.60;73.10
2893;DHT22;1456;51.840;12.184;2024-01-10T12:40:32;6.90;74.10
2893;DHT22;1456;51.840;12.184;2024-01-10T12:43:02;7.20;72.20
2893;DHT22;1456;51.840;12.184;2024-01-10T12:45:28;7.30;68.10
2893;DHT22;1456;51.840;12.184;2024-01-10T12:47:54;7.10;67.30
2893;DHT22;1456;51.840;12.184;2024-01-10T12:50:19;6.80;66.40
2893;DHT22;1456;51.840;12.184;2024-01-10T12:52:45;6.80;67.20
2893;DHT22;1456;51.840;12.184;2024-01-10T12:55:12;7.00;70.10
2893;DHT22;1456;51.840;12.184;2024-01-10T12:57:37;7.40;67.60
2893;DHT22;1456;51.840;12.184;2024-01-10T13:00:03;7.70;67.80
2893;DHT22;1456;51.840;12.184;2024-01-10T13:02:33;8.00;68.00
2893;DHT22;1456;51.840;12.184;2024-01-10T13:05:06;8.10;65.30
2893;DHT22;1456;51.840;12.184;2024-01-10T13:07:35;8.30;66.50
2893;DHT22;1456;51.840;12.184;2024-01-10T13:10:01;8.70;66.60
2893;DHT22;1456;51.840;12.184;2024-01-10T13:12:27;8.70;61.80
2893;DHT22;1456;51.840;12.184;2024-01-10T13:14:52;8.50;59.10
2893;DHT22;1456;51.840;12.184;2024-01-10T13:17:18;8.10;59.70
2893;DHT22;1456;51.840;12.184;2024-01-10T13:19:46;7.80;60.40
2893;DHT22;1456;51.840;12.184;2024-01-10T13:22:17;7.90;60.10
2893;DHT22;1456;51.840;12.184;2024-01-10T13:24:45;7.60;59.10
2893;DHT22;1456;51.840;12.184;2024-01-10T13:29:37;7.60;60.00
2893;DHT22;1456;51.840;12.184;2024-01-10T13:32:04;7.30;58.50
2893;DHT22;1456;51.840;12.184;2024-01-10T13:34:30;7.10;59.30
2893;DHT22;1456;51.840;12.184;2024-01-10T13:36:56;7.40;60.50
2893;DHT22;1456;51.840;12.184;2024-01-10T13:39:21;7.60;59.20
2893;DHT22;1456;51.840;12.184;2024-01-10T13:41:47;7.60;58.80
2893;DHT22;1456;51.840;12.184;2024-01-10T13:44:13;7.70;59.10
2893;DHT22;1456;51.840;12.184;2024-01-10T13:46:38;8.10;58.70
2893;DHT22;1456;51.840;12.184;2024-01-10T13:49:05;8.50;58.50
2893;DHT22;1456;51.840;12.184;2024-01-10T13:51:31;8.80;58.40
2893;DHT22;1456;51.840;12.184;2024-01-10T13:53:57;9.10;58.40
2893;DHT22;1456;51.840;12.184;2024-01-10T13:56:23;9.50;57.70
2893;DHT22;1456;51.840;12.184;2024-01-10T13:58:49;9.60;57.00
2893;DHT22;1456;51.840;12.184;2024-01-10T14:01:15;9.80;57.60
2893;DHT22;1456;51.840;12.184;2024-01-10T14:03:40;10.10;56.30
2893;DHT22;1456;51.840;12.184;2024-01-10T14:06:06;10.30;56.60
2893;DHT22;1456;51.840;12.184;2024-01-10T14:08:32;10.30;56.00
2893;DHT22;1456;51.840;12.184;2024-01-10T14:10:59;9.60;55.30
2893;DHT22;1456;51.840;12.184;2024-01-10T14:13:25;8.50;55.80
2893;DHT22;1456;51.840;12.184;2024-01-10T14:15:50;8.10;57.40
2893;DHT22;1456;51.840;12.184;2024-01-10T14:18:16;7.80;56.70
2893;DHT22;1456;51.840;12.184;2024-01-10T14:20:42;7.00;55.90
2893;DHT22;1456;51.840;12.184;2024-01-10T14:23:07;6.00;55.70
2893;DHT22;1456;51.840;12.184;2024-01-10T14:25:33;5.00;56.60
2893;DHT22;1456;51.840;12.184;2024-01-10T14:27:59;4.10;57.30
2893;DHT22;1456;51.840;12.184;2024-01-10T14:30:25;3.30;58.30
2893;DHT22;1456;51.840;12.184;2024-01-10T14:32:52;2.60;58.80
2893;DHT22;1456;51.840;12.184;2024-01-10T14:35:18;1.90;60.00
2893;DHT22;1456;51.840;12.184;2024-01-10T14:37:44;1.40;60.60
2893;DHT22;1456;51.840;12.184;2024-01-10T14:40:10;1.00;63.30
2893;DHT22;1456;51.840;12.184;2024-01-10T14:42:37;0.40;65.30
2893;DHT22;1456;51.840;12.184;2024-01-10T14:45:03;0.00;67.30
2893;DHT22;1456;51.840;12.184;2024-01-10T14:47:29;-0.40;68.90
2893;DHT22;1456;51.840;12.184;2024-01-10T14:49:55;-0.70;70.50
2893;DHT22;1456;51.840;12.184;2024-01-10T14:52:24;-0.80;72.10
2893;DHT22;1456;51.840;12.184;2024-01-10T14:54:51;-1.30;74.40
2893;DHT22;1456;51.840;12.184;2024-01-10T14:57:17;-1.40;75.80
2893;DHT22;1456;51.840;12.184;2024-01-10T14:59:43;-1.60;76.60
2893;DHT22;1456;51.840;12.184;2024-01-10T15:02:09;-1.90;78.50
2893;DHT22;1456;51.840;12.184;2024-01-10T15:04:41;-2.10;80.60
2893;DHT22;1456;51.840;12.184;2024-01-10T15:07:06;-2.30;83.10
2893;DHT22;1456;51.840;12.184;2024-01-10T15:09:32;-2.40;84.70
2893;DHT22;1456;51.840;12.184;2024-01-10T15:11:58;-2.50;85.50
2893;DHT22;1456;51.840;12.184;2024-01-10T15:14:24;-2.80;86.20
2893;DHT22;1456;51.840;12.184;2024-01-10T15:16:49;-3.00;87.60
2893;DHT22;1456;51.840;12.184;2024-01-10T15:19:15;-3.10;89.30
2893;DHT22;1456;51.840;12.184;2024-01-10T15:21:41;-3.30;90.40
2893;DHT22;1456;51.840;12.184;2024-01-10T15:24:07;-3.40;91.30
2893;DHT22;1456;51.840;12.184;2024-01-10T15:26:32;-3.50;92.30
2893;DHT22;1456;51.840;12.184;2024-01-10T15:28:58;-3.60;93.00
2893;DHT22;1456;51.840;12.184;2024-01-10T15:31:24;-3.80;93.40
2893;DHT22;1456;51.840;12.184;2024-01-10T15:33:51;-3.90;93.70
2893;DHT22;1456;51.840;12.184;2024-01-10T15:36:17;-4.00;94.10
2893;DHT22;1456;51.840;12.184;2024-01-10T15:38:43;-4.10;94.70
2893;DHT22;1456;51.840;12.184;2024-01-10T15:41:10;-4.20;95.30
2893;DHT22;1456;51.840;12.184;2024-01-10T15:43:38;-4.10;95.80
2893;DHT22;1456;51.840;12.184;2024-01-10T15:46:04;-4.40;96.10
2893;DHT22;1456;51.840;12.184;2024-01-10T15:48:30;-4.40;96.30
2893;DHT22;1456;51.840;12.184;2024-01-10T15:50:56;-4.50;96.70
2893;DHT22;1456;51.840;12.184;2024-01-10T15:53:23;-4.60;97.00
2893;DHT22;1456;51.840;12.184;2024-01-10T15:55:48;-4.70;97.20
2893;DHT22;1456;51.840;12.184;2024-01-10T15:58:18;-4.80;97.60
2893;DHT22;1456;51.840;12.184;2024-01-10T16:00:43;-4.90;98.00
2893;DHT22;1456;51.840;12.184;2024-01-10T16:03:09;-5.00;98.30
2893;DHT22;1456;51.840;12.184;2024-01-10T16:05:35;-5.00;98.70
2893;DHT22;1456;51.840;12.184;2024-01-10T16:08:00;-5.10;99.00
2893;DHT22;1456;51.840;12.184;2024-01-10T16:10:26;-5.10;99.10
2893;DHT22;1456;51.840;12.184;2024-01-10T16:12:52;-5.20;99.20
2893;DHT22;1456;51.840;12.184;2024-01-10T16:15:18;-5.30;99.20
2893;DHT22;1456;51.840;12.184;2024-01-10T16:17:44;-5.40;99.40
2893;DHT22;1456;51.840;12.184;2024-01-10T16:20:11;-5.40;99.50
2893;DHT22;1456;51.840;12.184;2024-01-10T16:22:36;-5.60;99.90
2893;DHT22;1456;51.840;12.184;2024-01-10T16:25:02;-5.80;99.90
2893;DHT22;1456;51.840;12.184;2024-01-10T16:27:28;-5.90;99.90
2893;DHT22;1456;51.840;12.184;2024-01-10T16:29:53;-5.90;99.90